Fishs Eddy, New York
Current Conditions -  °F | °C
As of 9:55 PM on Tuesday 21 Oct 2014 (Local Time) from KMSV Reporting Station
Overcast Overcast  
Wind Chill: 48°   Ceiling: 400
Heat Index: 48°   Visibility: 9mi
Dew Point: 48°   Wind: 3mph
Humidity: 100%   Direction: 30°NNE
Pressure: 29.95"   Gusts: NA
Location:  41.96°N, 75.18°W
Report Text: KMSV 220155Z AUTO 03003KT 9SM BKN004 OVC020 09/09 A2995 RMK AO1
Loading
Personal Weather Stations






























Interactive Weather Map
Tropical Storm Tracking
New forecast layout! Learn more

10-Day Weather Forecast

Advertisements
Track Severe Weather on mobile